createdAt,value
2022-12-29T00:09:47.306Z,44.10
2022-12-29T00:25:11.104Z,38.73
2022-12-29T00:40:35.543Z,39.20
2022-12-29T00:55:40.458Z,42.30
2022-12-29T01:10:44.493Z,58.90
2022-12-29T01:25:48.607Z,44.73
2022-12-29T01:40:52.918Z,40.33
2022-12-29T01:55:58.995Z,39.53
2022-12-29T02:11:04.487Z,35.83
2022-12-29T02:26:18.214Z,37.53
2022-12-29T02:41:33.366Z,31.80
2022-12-29T02:56:37.836Z,29.00
2022-12-29T03:12:11.848Z,32.60
2022-12-29T03:27:20.858Z,35.53
2022-12-29T03:42:28.663Z,36.33
2022-12-29T03:57:32.977Z,37.30
2022-12-29T04:12:43.454Z,39.13
2022-12-29T04:27:48.665Z,35.70
2022-12-29T04:43:09.955Z,34.10
2022-12-29T04:58:33.792Z,40.00
2022-12-29T05:13:38.561Z,34.10
2022-12-29T05:28:42.869Z,36.73
2022-12-29T05:43:50.985Z,39.70
2022-12-29T05:59:11.521Z,37.20
2022-12-29T06:14:15.763Z,37.97
2022-12-29T06:29:19.797Z,32.63
2022-12-29T06:44:24.743Z,35.97
2022-12-29T06:59:34.301Z,35.07
2022-12-29T07:14:42.937Z,35.10
2022-12-29T07:29:47.617Z,35.07
2022-12-29T07:44:51.895Z,31.50
2022-12-29T08:00:02.395Z,39.67
2022-12-29T08:15:15.832Z,33.30
2022-12-29T08:30:19.890Z,33.63
2022-12-29T08:45:24.998Z,31.97
2022-12-29T09:00:29.265Z,33.40
2022-12-29T09:15:34.827Z,29.17
2022-12-29T09:30:39.576Z,31.17
2022-12-29T09:46:01.794Z,30.07
2022-12-29T10:01:10.513Z,26.83
2022-12-29T10:16:20.257Z,31.70
2022-12-29T10:31:25.915Z,36.23
2022-12-29T10:46:36.537Z,36.97
2022-12-29T11:01:44.945Z,37.67
2022-12-29T11:17:00.601Z,35.00
2022-12-29T11:32:14.185Z,44.03
2022-12-29T11:47:44.104Z,37.47
2022-12-29T12:03:06.882Z,30.10
2022-12-29T12:18:18.989Z,28.50
2022-12-29T12:33:35.448Z,33.27
2022-12-29T12:48:39.912Z,27.13
2022-12-29T13:04:03.623Z,27.03
2022-12-29T13:19:13.718Z,22.47
2022-12-29T13:34:35.980Z,25.00
2022-12-29T13:49:40.617Z,31.40
2022-12-29T14:05:05.714Z,28.70
2022-12-29T14:20:30.712Z,29.60
2022-12-29T14:35:40.245Z,30.10
2022-12-29T14:50:45.407Z,29.23
2022-12-29T15:05:52.201Z,35.83
2022-12-29T15:21:00.562Z,57.70
2022-12-29T15:36:05.515Z,51.87
2022-12-29T15:51:27.899Z,45.00
2022-12-29T16:06:35.580Z,49.53
2022-12-29T16:21:39.934Z,45.10
2022-12-29T16:36:57.805Z,46.30
2022-12-29T16:52:02.491Z,46.40
2022-12-29T17:07:11.611Z,64.63
2022-12-29T17:22:18.639Z,68.97
2022-12-29T17:37:25.178Z,66.60
2022-12-29T17:52:29.949Z,52.37
2022-12-29T18:07:36.180Z,52.00
2022-12-29T18:22:40.769Z,60.37
2022-12-29T18:37:45.003Z,75.40
2022-12-29T18:52:49.141Z,82.07
2022-12-29T19:07:53.844Z,80.80
2022-12-29T19:22:58.728Z,87.63
2022-12-29T19:38:03.257Z,92.77
2022-12-29T19:53:07.941Z,90.60
2022-12-29T20:08:12.274Z,90.07
2022-12-29T20:23:16.534Z,96.03
2022-12-29T20:38:21.129Z,94.73
2022-12-29T20:53:25.381Z,85.70
2022-12-29T21:08:30.974Z,87.37
2022-12-29T21:23:35.406Z,81.57
2022-12-29T21:38:40.379Z,78.63
2022-12-29T21:53:45.872Z,68.27
2022-12-29T22:09:09.217Z,72.07
2022-12-29T22:24:13.297Z,74.07
2022-12-29T22:39:17.606Z,80.50
2022-12-29T22:54:21.820Z,74.23
2022-12-29T23:09:25.980Z,74.17
2022-12-29T23:24:30.751Z,74.40
2022-12-29T23:39:34.930Z,73.67
2022-12-29T23:54:39.200Z,74.60
